createdAt,value
2023-04-14T00:02:00.469Z,63.30
2023-04-14T00:04:28.410Z,63.53
2023-04-14T00:06:58.271Z,63.25
2023-04-14T00:09:26.191Z,63.63
2023-04-14T00:11:53.391Z,63.38
2023-04-14T00:14:23.533Z,63.17
2023-04-14T00:16:50.816Z,62.96
2023-04-14T00:19:18.107Z,62.97
2023-04-14T00:21:45.537Z,62.29
2023-04-14T00:24:12.905Z,62.17
2023-04-14T00:26:40.192Z,62.21
2023-04-14T00:29:07.600Z,61.93
2023-04-14T00:31:35.058Z,61.93
2023-04-14T00:34:02.424Z,61.67
2023-04-14T00:36:29.629Z,61.76
2023-04-14T00:38:56.839Z,62.05
2023-04-14T00:41:24.057Z,62.22
2023-04-14T00:43:54.887Z,62.40
2023-04-14T00:46:22.869Z,62.39
2023-04-14T00:48:50.388Z,62.71
2023-04-14T00:51:17.659Z,62.70
2023-04-14T00:53:45.255Z,62.71
2023-04-14T00:56:13.137Z,62.58
2023-04-14T00:58:41.613Z,62.31
2023-04-14T01:01:09.006Z,61.96
2023-04-14T01:03:36.370Z,61.92
2023-04-14T01:06:03.886Z,61.49
2023-04-14T01:08:31.575Z,61.58
2023-04-14T01:11:42.765Z,61.38
2023-04-14T01:14:24.279Z,61.19
2023-04-14T01:17:00.593Z,61.40
2023-04-14T01:20:03.723Z,61.58
2023-04-14T01:22:36.311Z,61.53
2023-04-14T01:26:04.413Z,60.01
2023-04-14T01:29:02.680Z,59.28
2023-04-14T01:31:50.792Z,58.94
2023-04-14T01:35:03.561Z,59.76
2023-04-14T01:37:43.047Z,60.03
2023-04-14T01:40:19.657Z,60.10
2023-04-14T01:43:04.405Z,60.70
2023-04-14T01:45:50.267Z,60.56
2023-04-14T01:48:18.749Z,60.63
2023-04-14T01:50:48.790Z,60.12
2023-04-14T01:53:19.851Z,60.49
2023-04-14T01:55:51.417Z,60.48
2023-04-14T01:58:21.923Z,60.44
2023-04-14T02:00:52.050Z,59.96
2023-04-14T02:03:21.788Z,60.23
2023-04-14T02:05:52.589Z,59.97
2023-04-14T02:08:23.136Z,59.74
2023-04-14T02:10:54.132Z,60.07
2023-04-14T02:13:24.073Z,60.01
2023-04-14T02:15:52.771Z,60.10
2023-04-14T02:18:23.214Z,60.16
2023-04-14T02:20:54.671Z,60.09
2023-04-14T02:23:22.375Z,59.89
2023-04-14T02:26:00.787Z,59.92
2023-04-14T02:28:34.441Z,60.21
2023-04-14T02:31:10.047Z,60.08
2023-04-14T02:33:39.933Z,60.54
2023-04-14T02:36:18.203Z,60.40
2023-04-14T02:39:04.642Z,60.59
2023-04-14T02:41:34.561Z,60.47
2023-04-14T02:44:18.771Z,60.42
2023-04-14T02:47:09.533Z,60.68
2023-04-14T02:49:43.501Z,60.93
2023-04-14T02:52:15.739Z,60.92
2023-04-14T02:54:44.540Z,60.45
2023-04-14T02:57:12.449Z,60.81
2023-04-14T02:59:42.044Z,60.86
2023-04-14T03:02:11.770Z,60.65
2023-04-14T03:04:39.942Z,60.23
2023-04-14T03:07:09.443Z,60.17
2023-04-14T03:09:37.528Z,60.43
2023-04-14T03:12:07.409Z,60.25
2023-04-14T03:14:37.586Z,60.24
2023-04-14T03:17:06.768Z,60.38
2023-04-14T03:19:35.657Z,60.15
2023-04-14T03:22:04.825Z,60.42
2023-04-14T03:24:35.993Z,60.06
2023-04-14T03:27:22.428Z,59.97
2023-04-14T03:29:55.361Z,59.81
2023-04-14T03:32:32.461Z,59.71
2023-04-14T03:35:02.246Z,59.76
2023-04-14T03:37:35.264Z,59.60
2023-04-14T03:40:03.459Z,59.41
2023-04-14T03:42:31.507Z,59.38
2023-04-14T03:45:00.036Z,59.50
2023-04-14T03:47:27.453Z,59.57
2023-04-14T03:49:58.848Z,59.81
2023-04-14T03:52:28.976Z,59.73
2023-04-14T03:55:01.063Z,59.69
2023-04-14T03:57:32.403Z,60.07
2023-04-14T04:00:02.918Z,59.73
2023-04-14T04:02:32.032Z,59.83
2023-04-14T04:05:00.038Z,60.11
2023-04-14T04:07:30.742Z,59.89
2023-04-14T04:10:00.095Z,59.94
2023-04-14T04:12:29.737Z,59.93
2023-04-14T04:14:57.109Z,59.86
2023-04-14T04:17:29.957Z,59.81
2023-04-14T04:20:00.370Z,59.89
2023-04-14T04:22:28.804Z,59.73
2023-04-14T04:24:57.918Z,59.72
2023-04-14T04:27:28.271Z,59.99
2023-04-14T04:29:56.314Z,60.21
2023-04-14T04:32:23.784Z,59.95
2023-04-14T04:34:53.091Z,59.84
2023-04-14T04:37:21.892Z,59.86
2023-04-14T04:39:49.458Z,59.75
2023-04-14T04:42:16.704Z,59.55
2023-04-14T04:44:43.993Z,59.50
2023-04-14T04:47:13.336Z,59.53
2023-04-14T04:49:40.923Z,59.66
2023-04-14T04:52:08.308Z,59.75
2023-04-14T04:54:35.511Z,59.47
2023-04-14T04:57:02.805Z,59.70
2023-04-14T04:59:30.004Z,59.46
2023-04-14T05:01:57.347Z,59.55
2023-04-14T05:04:24.698Z,59.45
2023-04-14T05:06:51.948Z,59.18
2023-04-14T05:09:19.305Z,59.20
2023-04-14T05:11:46.416Z,59.25
2023-04-14T05:14:13.577Z,59.86
2023-04-14T05:16:40.824Z,59.59
2023-04-14T05:19:08.025Z,59.46
2023-04-14T05:21:35.234Z,59.81
2023-04-14T05:24:02.501Z,59.43
2023-04-14T05:26:51.977Z,59.80
2023-04-14T05:29:17.874Z,59.85
2023-04-14T05:31:45.848Z,59.86
2023-04-14T05:34:13.245Z,59.98
2023-04-14T05:36:40.601Z,59.49
2023-04-14T05:39:07.746Z,59.81
2023-04-14T05:41:34.916Z,59.87
2023-04-14T05:44:02.404Z,59.70
2023-04-14T05:46:30.042Z,59.64
2023-04-14T05:48:57.270Z,59.58
2023-04-14T05:51:24.529Z,59.13
2023-04-14T05:53:51.723Z,59.33
2023-04-14T05:56:19.044Z,59.48
2023-04-14T05:58:46.407Z,59.35
2023-04-14T06:01:13.581Z,59.39
2023-04-14T06:03:41.050Z,59.31
2023-04-14T06:06:08.545Z,59.22
2023-04-14T06:08:35.734Z,59.20
2023-04-14T06:11:03.693Z,58.97
2023-04-14T06:13:32.980Z,58.87
2023-04-14T06:16:02.306Z,58.71
2023-04-14T06:18:29.575Z,59.03
2023-04-14T06:20:56.741Z,58.94
2023-04-14T06:23:23.915Z,58.90
2023-04-14T06:25:51.099Z,58.87
2023-04-14T06:28:18.460Z,58.73
2023-04-14T06:30:45.742Z,58.81
2023-04-14T06:33:12.897Z,59.16
2023-04-14T06:35:40.146Z,59.07
2023-04-14T06:38:07.388Z,59.45
2023-04-14T06:40:34.635Z,59.12
2023-04-14T06:43:01.894Z,59.04
2023-04-14T06:45:29.115Z,58.66
2023-04-14T06:47:56.723Z,58.96
2023-04-14T06:50:24.049Z,59.08
2023-04-14T06:52:51.387Z,58.54
2023-04-14T06:55:19.431Z,58.35
2023-04-14T06:57:46.555Z,58.73
2023-04-14T07:00:14.253Z,58.26
2023-04-14T07:02:43.258Z,58.79
2023-04-14T07:05:12.326Z,58.63
2023-04-14T07:07:40.504Z,58.52
2023-04-14T07:10:10.101Z,58.85
2023-04-14T07:12:38.834Z,59.05
2023-04-14T07:15:07.164Z,58.93
2023-04-14T07:17:36.909Z,58.96
2023-04-14T07:20:04.729Z,58.36
2023-04-14T07:22:32.092Z,57.98
2023-04-14T07:24:59.272Z,57.99
2023-04-14T07:27:26.554Z,58.29
2023-04-14T07:29:53.734Z,56.34
2023-04-14T07:32:21.037Z,55.77
2023-04-14T07:34:48.281Z,55.87
2023-04-14T07:37:17.168Z,55.56
2023-04-14T07:39:44.488Z,55.63
2023-04-14T07:42:12.509Z,55.18
2023-04-14T07:44:39.791Z,55.35
2023-04-14T07:47:08.291Z,54.81
2023-04-14T07:49:36.452Z,54.61
2023-04-14T07:52:03.879Z,54.79
2023-04-14T07:54:31.173Z,54.72
2023-04-14T07:56:58.627Z,54.74
2023-04-14T07:59:25.854Z,54.68
2023-04-14T08:01:53.171Z,54.36
2023-04-14T08:04:20.561Z,54.17
2023-04-14T08:06:47.788Z,54.52
2023-04-14T08:09:14.944Z,54.34
2023-04-14T08:11:42.115Z,54.47
2023-04-14T08:14:09.336Z,53.45
2023-04-14T08:16:36.834Z,53.62
2023-04-14T08:19:05.178Z,53.72
2023-04-14T08:21:32.925Z,53.66
2023-04-14T08:24:00.269Z,53.74
2023-04-14T08:26:27.491Z,53.98
2023-04-14T08:28:55.075Z,53.61
2023-04-14T08:31:25.974Z,53.84
2023-04-14T08:33:53.413Z,54.42
2023-04-14T08:36:20.957Z,54.22
2023-04-14T08:38:48.403Z,53.87
2023-04-14T08:41:19.964Z,53.76
2023-04-14T08:43:47.438Z,54.27
2023-04-14T08:46:15.600Z,53.99
2023-04-14T08:48:46.873Z,53.85
2023-04-14T08:51:34.291Z,53.09
2023-04-14T08:54:07.482Z,53.93
2023-04-14T08:56:39.350Z,53.65
2023-04-14T08:59:08.691Z,53.53
2023-04-14T09:01:37.816Z,53.85
2023-04-14T09:04:06.062Z,53.82
2023-04-14T09:06:34.556Z,53.54
2023-04-14T09:09:02.955Z,53.28
2023-04-14T09:11:30.756Z,53.10
2023-04-14T09:14:00.537Z,53.58
2023-04-14T09:16:29.000Z,53.14
2023-04-14T09:19:03.650Z,53.09
2023-04-14T09:21:51.821Z,53.30
2023-04-14T09:24:28.230Z,52.74
2023-04-14T09:26:57.226Z,52.56
2023-04-14T09:29:25.495Z,53.18
2023-04-14T09:31:53.451Z,51.98
2023-04-14T09:34:21.483Z,52.70
2023-04-14T09:37:07.080Z,52.92
2023-04-14T09:39:36.827Z,53.45
2023-04-14T09:42:04.902Z,52.51
2023-04-14T09:44:32.183Z,53.33
2023-04-14T09:47:06.910Z,53.45
2023-04-14T09:49:34.720Z,52.82
2023-04-14T09:52:11.709Z,51.81
2023-04-14T09:54:41.585Z,52.66
2023-04-14T09:57:09.156Z,52.47
2023-04-14T09:59:39.728Z,51.83
2023-04-14T10:02:09.249Z,52.35
2023-04-14T10:04:38.369Z,53.10
2023-04-14T10:07:07.187Z,52.39
2023-04-14T10:09:37.129Z,53.42
2023-04-14T10:12:15.620Z,53.46
2023-04-14T10:14:44.410Z,53.44
2023-04-14T10:17:11.730Z,53.73
2023-04-14T10:19:39.581Z,54.21
2023-04-14T10:22:07.107Z,52.34
2023-04-14T10:24:34.857Z,52.50
2023-04-14T10:27:03.766Z,51.88
2023-04-14T10:29:31.460Z,51.78
2023-04-14T10:32:06.775Z,52.47
2023-04-14T10:34:35.445Z,52.35
2023-04-14T10:37:16.455Z,52.24
2023-04-14T10:39:43.821Z,51.25
2023-04-14T10:42:11.200Z,50.60
2023-04-14T10:44:38.413Z,50.68
2023-04-14T10:47:07.011Z,48.81
2023-04-14T10:49:37.453Z,49.10
2023-04-14T10:52:24.556Z,48.04
2023-04-14T10:55:25.313Z,47.54
2023-04-14T10:57:53.058Z,46.93
2023-04-14T11:00:28.432Z,45.82
2023-04-14T11:03:06.263Z,45.86
2023-04-14T11:05:35.265Z,44.83
2023-04-14T11:08:17.481Z,43.00
2023-04-14T11:11:00.002Z,42.71
2023-04-14T11:13:31.033Z,42.57
2023-04-14T11:16:06.258Z,40.63
2023-04-14T11:18:42.764Z,41.09
2023-04-14T11:21:15.990Z,39.39
2023-04-14T11:23:46.536Z,39.15
2023-04-14T11:26:14.056Z,39.66
2023-04-14T11:28:44.644Z,38.56
2023-04-14T11:31:15.993Z,38.85
2023-04-14T11:33:43.406Z,40.42
2023-04-14T11:36:11.819Z,39.29
2023-04-14T11:38:39.797Z,39.12
2023-04-14T11:41:08.243Z,38.04
2023-04-14T11:43:37.885Z,36.61
2023-04-14T11:46:08.476Z,37.09
2023-04-14T11:48:36.093Z,36.37
2023-04-14T11:51:04.017Z,36.48
2023-04-14T11:53:31.848Z,37.87
2023-04-14T11:56:00.019Z,38.48
2023-04-14T11:58:28.263Z,35.88
2023-04-14T12:00:56.587Z,38.51
2023-04-14T12:03:31.613Z,38.03
2023-04-14T12:06:00.909Z,36.19
2023-04-14T12:08:31.293Z,35.51
2023-04-14T12:11:11.527Z,37.11
2023-04-14T12:13:44.084Z,37.00
2023-04-14T12:16:16.612Z,37.25
2023-04-14T12:18:44.812Z,38.18
2023-04-14T12:21:19.081Z,38.98
2023-04-14T12:23:48.350Z,37.44
2023-04-14T12:26:16.656Z,35.96
2023-04-14T12:28:44.164Z,37.81
2023-04-14T12:31:11.872Z,38.90
2023-04-14T12:33:39.560Z,38.76
2023-04-14T12:36:12.069Z,35.90
2023-04-14T12:38:39.897Z,35.82
2023-04-14T12:41:07.241Z,34.62
2023-04-14T12:43:39.403Z,35.47
2023-04-14T12:46:06.653Z,35.30
2023-04-14T12:48:47.689Z,34.65
2023-04-14T12:51:20.375Z,34.43
2023-04-14T12:53:48.877Z,33.82
2023-04-14T12:56:21.003Z,32.51
2023-04-14T12:58:49.277Z,33.15
2023-04-14T13:01:19.763Z,33.06
2023-04-14T13:03:50.862Z,32.73
2023-04-14T13:06:21.455Z,31.88
2023-04-14T13:08:55.749Z,33.32
2023-04-14T13:11:24.862Z,31.46
2023-04-14T13:13:53.704Z,32.65
2023-04-14T13:16:26.386Z,32.17
2023-04-14T13:18:54.892Z,32.22
2023-04-14T13:21:22.316Z,30.32
2023-04-14T13:23:49.627Z,31.96
2023-04-14T13:26:16.982Z,32.25
2023-04-14T13:28:44.152Z,31.55
2023-04-14T13:31:11.667Z,30.90
2023-04-14T13:33:38.911Z,31.48
2023-04-14T13:36:06.743Z,30.77
2023-04-14T13:38:34.645Z,31.02
2023-04-14T13:41:02.106Z,30.51
2023-04-14T13:43:29.508Z,30.32
2023-04-14T13:45:57.994Z,30.28
2023-04-14T13:48:25.884Z,30.06
2023-04-14T13:50:55.520Z,31.46
2023-04-14T13:53:23.491Z,30.68
2023-04-14T13:55:51.087Z,30.26
2023-04-14T13:58:18.511Z,30.19
2023-04-14T14:00:45.775Z,29.45
2023-04-14T14:03:13.347Z,28.95
2023-04-14T14:05:40.755Z,30.70
2023-04-14T14:08:07.944Z,30.54
2023-04-14T14:10:35.426Z,29.81
2023-04-14T14:13:02.840Z,29.05
2023-04-14T14:15:31.152Z,29.06
2023-04-14T14:17:59.414Z,29.31
2023-04-14T14:20:26.877Z,29.53
2023-04-14T14:22:54.065Z,29.44
2023-04-14T14:25:21.737Z,30.30
2023-04-14T14:27:50.327Z,30.31
2023-04-14T14:30:17.489Z,30.08
2023-04-14T14:32:44.676Z,30.88
2023-04-14T14:35:12.094Z,30.63
2023-04-14T14:37:40.763Z,30.93
2023-04-14T14:40:08.982Z,31.29
2023-04-14T14:42:36.800Z,32.58
2023-04-14T14:45:09.220Z,32.90
2023-04-14T14:47:40.036Z,32.24
2023-04-14T14:50:08.758Z,32.41
2023-04-14T14:52:36.332Z,32.93
2023-04-14T14:55:04.555Z,32.47
2023-04-14T14:57:32.177Z,32.69
2023-04-14T15:00:00.601Z,32.58
2023-04-14T15:02:28.114Z,31.76
2023-04-14T15:04:55.759Z,32.37
2023-04-14T15:07:23.116Z,32.32
2023-04-14T15:09:51.103Z,32.35
2023-04-14T15:12:18.405Z,32.07
2023-04-14T15:14:45.822Z,31.87
2023-04-14T15:17:13.076Z,32.53
2023-04-14T15:19:41.934Z,33.17
2023-04-14T15:22:09.996Z,33.24
2023-04-14T15:24:37.270Z,33.17
2023-04-14T15:27:04.605Z,33.82
2023-04-14T15:29:31.888Z,34.62
2023-04-14T15:32:00.294Z,35.67
2023-04-14T15:34:28.144Z,35.80
2023-04-14T15:36:55.355Z,35.53
2023-04-14T15:39:22.647Z,33.06
2023-04-14T15:41:49.800Z,32.73
2023-04-14T15:44:17.067Z,33.37
2023-04-14T15:46:44.262Z,34.18
2023-04-14T15:49:11.387Z,32.09
2023-04-14T15:51:38.696Z,31.51
2023-04-14T15:54:06.388Z,30.91
2023-04-14T15:56:33.702Z,32.42
2023-04-14T15:59:01.097Z,32.25
2023-04-14T16:01:28.410Z,31.90
2023-04-14T16:03:55.692Z,32.88
2023-04-14T16:06:23.097Z,32.51
2023-04-14T16:08:50.577Z,33.36
2023-04-14T16:11:18.425Z,32.61
2023-04-14T16:13:45.810Z,31.56
2023-04-14T16:16:15.044Z,31.89
2023-04-14T16:18:42.679Z,31.98
2023-04-14T16:21:10.597Z,32.15
2023-04-14T16:23:37.940Z,32.48
2023-04-14T16:26:05.345Z,32.29
2023-04-14T16:28:33.164Z,32.31
2023-04-14T16:31:03.862Z,32.61
2023-04-14T16:33:31.105Z,31.74
2023-04-14T16:36:06.703Z,32.49
2023-04-14T16:38:34.391Z,32.39
2023-04-14T16:41:02.810Z,33.08
2023-04-14T16:43:30.041Z,33.37
2023-04-14T16:46:06.575Z,32.41
2023-04-14T16:48:34.104Z,32.52
2023-04-14T16:51:10.197Z,32.92
2023-04-14T16:53:40.761Z,33.17
2023-04-14T16:56:10.594Z,33.33
2023-04-14T16:58:38.399Z,34.01
2023-04-14T17:01:06.710Z,33.47
2023-04-14T17:03:35.423Z,33.82
2023-04-14T17:06:03.995Z,34.35
2023-04-14T17:08:31.200Z,33.49
2023-04-14T17:10:58.568Z,34.13
2023-04-14T17:13:26.074Z,34.04
2023-04-14T17:16:05.559Z,34.04
2023-04-14T17:18:33.325Z,34.33
2023-04-14T17:21:01.042Z,34.84
2023-04-14T17:23:28.313Z,34.98
2023-04-14T17:25:58.605Z,35.39
2023-04-14T17:28:26.181Z,35.45
2023-04-14T17:30:53.703Z,35.55
2023-04-14T17:33:24.383Z,36.22
2023-04-14T17:35:51.695Z,35.27
2023-04-14T17:38:18.906Z,36.35
2023-04-14T17:40:46.619Z,36.03
2023-04-14T17:43:14.668Z,36.07
2023-04-14T17:45:42.369Z,36.54
2023-04-14T17:48:12.447Z,36.48
2023-04-14T17:50:40.062Z,37.31
2023-04-14T17:53:07.360Z,37.50
2023-04-14T17:55:37.411Z,37.72
2023-04-14T17:58:04.721Z,37.32
2023-04-14T18:00:32.384Z,37.52
2023-04-14T18:02:59.675Z,37.98
2023-04-14T18:05:27.165Z,38.01
2023-04-14T18:07:54.405Z,38.33
2023-04-14T18:10:22.147Z,38.55
2023-04-14T18:12:49.446Z,38.53
2023-04-14T18:15:17.069Z,38.64
2023-04-14T18:17:44.507Z,39.02
2023-04-14T18:20:12.761Z,38.87
2023-04-14T18:22:40.426Z,39.30
2023-04-14T18:25:08.681Z,39.97
2023-04-14T18:30:08.510Z,40.57
2023-04-14T18:32:36.063Z,41.49
2023-04-14T18:35:03.581Z,41.25
2023-04-14T18:37:30.811Z,40.93
2023-04-14T18:39:58.175Z,42.13
2023-04-14T18:42:25.791Z,41.90
2023-04-14T18:44:53.182Z,42.08
2023-04-14T18:47:20.513Z,42.38
2023-04-14T18:49:48.168Z,42.34
2023-04-14T18:52:16.077Z,42.79
2023-04-14T18:54:43.408Z,42.91
2023-04-14T18:57:10.915Z,43.06
2023-04-14T18:59:38.416Z,42.46
2023-04-14T19:02:06.557Z,42.62
2023-04-14T19:04:33.943Z,42.09
2023-04-14T19:07:01.679Z,41.96
2023-04-14T19:09:28.846Z,43.02
2023-04-14T19:11:56.118Z,42.86
2023-04-14T19:14:23.810Z,42.91
2023-04-14T19:16:51.568Z,42.59
2023-04-14T19:19:18.750Z,42.87
2023-04-14T19:21:46.090Z,42.90
2023-04-14T19:24:16.122Z,42.80
2023-04-14T19:26:44.663Z,42.72
2023-04-14T19:29:11.871Z,42.83
2023-04-14T19:31:39.087Z,42.87
2023-04-14T19:34:06.799Z,42.79
2023-04-14T19:36:34.364Z,42.97
2023-04-14T19:39:02.103Z,43.17
2023-04-14T19:41:29.524Z,42.88
2023-04-14T19:43:56.903Z,42.89
2023-04-14T19:46:24.552Z,42.84
2023-04-14T19:48:52.449Z,42.80
2023-04-14T19:51:19.617Z,42.79
2023-04-14T19:53:46.788Z,42.80
2023-04-14T19:56:14.391Z,42.58
2023-04-14T19:58:41.876Z,42.62
2023-04-14T20:01:09.050Z,43.45
2023-04-14T20:03:36.396Z,44.04
2023-04-14T20:06:04.283Z,43.41
2023-04-14T20:08:31.470Z,43.40
2023-04-14T20:10:59.182Z,43.68
2023-04-14T20:13:26.855Z,43.66
2023-04-14T20:15:54.308Z,43.51
2023-04-14T20:18:21.901Z,43.34
2023-04-14T20:20:49.500Z,43.52
2023-04-14T20:23:17.252Z,44.02
2023-04-14T20:25:44.521Z,43.83
2023-04-14T20:28:12.579Z,43.72
2023-04-14T20:30:39.980Z,43.96
2023-04-14T20:33:07.202Z,44.04
2023-04-14T20:35:36.425Z,44.12
2023-04-14T20:38:04.426Z,44.41
2023-04-14T20:40:31.853Z,43.95
2023-04-14T20:42:59.516Z,43.64
2023-04-14T20:45:27.134Z,43.78
2023-04-14T20:47:54.680Z,44.41
2023-04-14T20:50:22.581Z,44.45
2023-04-14T20:52:50.625Z,44.11
2023-04-14T20:55:19.289Z,44.39
2023-04-14T20:57:47.947Z,44.16
2023-04-14T21:00:16.753Z,44.25
2023-04-14T21:02:47.443Z,44.89
2023-04-14T21:05:15.421Z,44.70
2023-04-14T21:07:42.691Z,44.25
2023-04-14T21:10:11.414Z,44.30
2023-04-14T21:15:25.490Z,44.26
2023-04-14T21:15:50.956Z,43.46
2023-04-14T21:18:14.093Z,43.66
2023-04-14T21:20:50.609Z,43.45
2023-04-14T21:23:18.351Z,43.58
2023-04-14T21:25:45.574Z,43.96
2023-04-14T21:28:13.062Z,43.64
2023-04-14T21:30:46.562Z,43.87
2023-04-14T21:33:14.189Z,43.75
2023-04-14T21:35:41.583Z,44.04
2023-04-14T21:38:08.776Z,43.91
2023-04-14T21:40:35.980Z,43.57
2023-04-14T21:43:03.423Z,44.43
2023-04-14T21:45:31.083Z,43.89
2023-04-14T21:47:58.452Z,44.08
2023-04-14T21:50:25.778Z,43.68
2023-04-14T21:52:53.017Z,43.75
2023-04-14T21:55:20.303Z,43.85
2023-04-14T21:57:49.718Z,44.24
2023-04-14T22:00:18.175Z,43.89
2023-04-14T22:02:46.630Z,44.00
2023-04-14T22:05:15.774Z,43.87
2023-04-14T22:07:43.029Z,44.22
2023-04-14T22:10:11.508Z,43.76
2023-04-14T22:12:39.924Z,43.83
2023-04-14T22:15:09.284Z,43.87
2023-04-14T22:17:38.869Z,44.23
2023-04-14T22:20:07.716Z,43.93
2023-04-14T22:22:35.783Z,43.80
2023-04-14T22:25:04.414Z,44.34
2023-04-14T22:27:32.422Z,44.37
2023-04-14T22:29:59.670Z,43.73
2023-04-14T22:32:27.326Z,44.75
2023-04-14T22:34:54.950Z,44.93
2023-04-14T22:37:22.263Z,44.76
2023-04-14T22:39:49.545Z,44.50
2023-04-14T22:42:16.816Z,45.08
2023-04-14T22:44:44.101Z,44.94
2023-04-14T22:47:11.287Z,44.43
2023-04-14T22:49:38.564Z,44.92
2023-04-14T22:52:05.878Z,44.69
2023-04-14T22:54:33.416Z,44.99
2023-04-14T22:57:00.717Z,44.99
2023-04-14T22:59:27.958Z,44.98
2023-04-14T23:01:55.294Z,45.22
2023-04-14T23:04:22.753Z,45.54
2023-04-14T23:06:50.186Z,45.49
2023-04-14T23:09:17.435Z,45.86
2023-04-14T23:11:44.722Z,46.28
2023-04-14T23:14:12.250Z,46.54
2023-04-14T23:16:39.687Z,46.60
2023-04-14T23:19:06.949Z,46.48
2023-04-14T23:21:34.209Z,46.68
2023-04-14T23:24:01.456Z,47.06
2023-04-14T23:26:28.770Z,46.70
2023-04-14T23:28:56.176Z,47.03
2023-04-14T23:31:23.507Z,47.42
2023-04-14T23:34:14.118Z,47.32
2023-04-14T23:36:51.489Z,47.38
2023-04-14T23:39:18.710Z,47.97
2023-04-14T23:41:45.853Z,48.13
2023-04-14T23:44:13.120Z,48.12
2023-04-14T23:46:40.707Z,48.07
2023-04-14T23:49:11.340Z,48.17
2023-04-14T23:51:51.985Z,48.23
2023-04-14T23:54:19.178Z,48.12
2023-04-14T23:56:47.144Z,48.21
2023-04-14T23:59:14.564Z,47.97
